sensor_id;sensor_type;location;lat;lon;timestamp;P1;durP1;ratioP1;P2;durP2;ratioP2
1320;SDS011;653;51.480;11.992;2022-12-07T00:01:15;24.33;;;12.10;;
1320;SDS011;653;51.480;11.992;2022-12-07T00:03:42;24.43;;;13.70;;
1320;SDS011;653;51.480;11.992;2022-12-07T00:06:09;23.17;;;13.40;;
1320;SDS011;653;51.480;11.992;2022-12-07T00:08:36;21.70;;;13.90;;
1320;SDS011;653;51.480;11.992;2022-12-07T00:11:03;26.07;;;14.10;;
1320;SDS011;653;51.480;11.992;2022-12-07T00:13:35;25.37;;;15.13;;
1320;SDS011;653;51.480;11.992;2022-12-07T00:16:05;21.00;;;13.40;;
1320;SDS011;653;51.480;11.992;2022-12-07T00:18:31;21.20;;;13.23;;
1320;SDS011;653;51.480;11.992;2022-12-07T00:21:01;25.03;;;15.20;;
1320;SDS011;653;51.480;11.992;2022-12-07T00:23:32;23.10;;;13.23;;
1320;SDS011;653;51.480;11.992;2022-12-07T00:26:05;20.97;;;12.53;;
1320;SDS011;653;51.480;11.992;2022-12-07T00:28:31;20.47;;;14.27;;
1320;SDS011;653;51.480;11.992;2022-12-07T00:31:09;19.73;;;12.57;;
1320;SDS011;653;51.480;11.992;2022-12-07T00:33:35;20.33;;;13.57;;
1320;SDS011;653;51.480;11.992;2022-12-07T00:36:02;23.17;;;12.37;;
1320;SDS011;653;51.480;11.992;2022-12-07T00:38:29;25.30;;;16.03;;
1320;SDS011;653;51.480;11.992;2022-12-07T00:40:59;25.37;;;14.73;;
1320;SDS011;653;51.480;11.992;2022-12-07T00:43:25;22.10;;;13.80;;
1320;SDS011;653;51.480;11.992;2022-12-07T00:45:52;24.57;;;14.57;;
1320;SDS011;653;51.480;11.992;2022-12-07T00:48:17;20.67;;;14.03;;
1320;SDS011;653;51.480;11.992;2022-12-07T00:50:43;21.47;;;14.40;;
1320;SDS011;653;51.480;11.992;2022-12-07T00:53:08;22.10;;;14.23;;
1320;SDS011;653;51.480;11.992;2022-12-07T00:55:36;23.10;;;14.43;;
1320;SDS011;653;51.480;11.992;2022-12-07T00:58:02;22.80;;;14.83;;
1320;SDS011;653;51.480;11.992;2022-12-07T01:00:28;21.70;;;13.37;;
1320;SDS011;653;51.480;11.992;2022-12-07T01:02:53;23.10;;;14.70;;
1320;SDS011;653;51.480;11.992;2022-12-07T01:05:19;26.40;;;14.43;;
1320;SDS011;653;51.480;11.992;2022-12-07T01:07:44;23.53;;;14.90;;
1320;SDS011;653;51.480;11.992;2022-12-07T01:10:11;22.30;;;14.30;;
1320;SDS011;653;51.480;11.992;2022-12-07T01:12:37;22.77;;;14.67;;
1320;SDS011;653;51.480;11.992;2022-12-07T01:15:02;21.73;;;15.17;;
1320;SDS011;653;51.480;11.992;2022-12-07T01:17:28;23.00;;;14.13;;
1320;SDS011;653;51.480;11.992;2022-12-07T01:19:53;23.03;;;15.03;;
1320;SDS011;653;51.480;11.992;2022-12-07T01:22:19;27.77;;;15.23;;
1320;SDS011;653;51.480;11.992;2022-12-07T01:24:44;22.73;;;13.33;;
1320;SDS011;653;51.480;11.992;2022-12-07T01:27:12;21.37;;;12.67;;
1320;SDS011;653;51.480;11.992;2022-12-07T01:29:38;19.87;;;14.10;;
1320;SDS011;653;51.480;11.992;2022-12-07T01:32:03;27.80;;;14.77;;
1320;SDS011;653;51.480;11.992;2022-12-07T01:34:29;23.97;;;14.00;;
1320;SDS011;653;51.480;11.992;2022-12-07T01:36:54;22.53;;;14.33;;
1320;SDS011;653;51.480;11.992;2022-12-07T01:39:19;23.37;;;14.60;;
1320;SDS011;653;51.480;11.992;2022-12-07T01:41:45;23.63;;;14.33;;
1320;SDS011;653;51.480;11.992;2022-12-07T01:44:17;24.80;;;14.40;;
1320;SDS011;653;51.480;11.992;2022-12-07T01:46:51;25.23;;;15.47;;
1320;SDS011;653;51.480;11.992;2022-12-07T01:51:58;24.97;;;15.90;;
1320;SDS011;653;51.480;11.992;2022-12-07T01:54:33;28.47;;;14.63;;
1320;SDS011;653;51.480;11.992;2022-12-07T01:56:59;24.63;;;14.30;;
1320;SDS011;653;51.480;11.992;2022-12-07T01:59:25;22.23;;;14.00;;
1320;SDS011;653;51.480;11.992;2022-12-07T02:01:51;20.40;;;14.83;;
1320;SDS011;653;51.480;11.992;2022-12-07T02:04:18;23.80;;;13.77;;
1320;SDS011;653;51.480;11.992;2022-12-07T02:06:43;23.03;;;14.93;;
1320;SDS011;653;51.480;11.992;2022-12-07T02:09:10;21.63;;;14.00;;
1320;SDS011;653;51.480;11.992;2022-12-07T02:11:35;27.87;;;13.73;;
1320;SDS011;653;51.480;11.992;2022-12-07T02:14:01;23.37;;;12.67;;
1320;SDS011;653;51.480;11.992;2022-12-07T02:27:36;21.97;;;13.97;;
1320;SDS011;653;51.480;11.992;2022-12-07T02:30:06;21.10;;;12.90;;
1320;SDS011;653;51.480;11.992;2022-12-07T02:35:08;20.87;;;13.20;;
1320;SDS011;653;51.480;11.992;2022-12-07T02:37:38;21.70;;;13.27;;
1320;SDS011;653;51.480;11.992;2022-12-07T02:43:16;24.37;;;14.90;;
1320;SDS011;653;51.480;11.992;2022-12-07T02:46:16;19.10;;;13.57;;
1320;SDS011;653;51.480;11.992;2022-12-07T02:48:44;22.40;;;13.47;;
1320;SDS011;653;51.480;11.992;2022-12-07T02:51:10;20.87;;;13.77;;
1320;SDS011;653;51.480;11.992;2022-12-07T02:53:37;24.30;;;15.50;;
1320;SDS011;653;51.480;11.992;2022-12-07T02:58:49;25.17;;;15.37;;
1320;SDS011;653;51.480;11.992;2022-12-07T03:03:58;26.03;;;15.37;;
1320;SDS011;653;51.480;11.992;2022-12-07T03:06:33;22.93;;;13.97;;
1320;SDS011;653;51.480;11.992;2022-12-07T03:12:16;20.27;;;13.43;;
1320;SDS011;653;51.480;11.992;2022-12-07T03:14:45;19.33;;;12.17;;
1320;SDS011;653;51.480;11.992;2022-12-07T03:17:19;21.70;;;13.37;;
1320;SDS011;653;51.480;11.992;2022-12-07T03:19:50;22.10;;;13.60;;
1320;SDS011;653;51.480;11.992;2022-12-07T03:22:18;22.93;;;13.07;;
1320;SDS011;653;51.480;11.992;2022-12-07T03:24:48;22.47;;;12.93;;
1320;SDS011;653;51.480;11.992;2022-12-07T03:29:52;23.90;;;13.30;;
1320;SDS011;653;51.480;11.992;2022-12-07T03:32:23;19.60;;;12.73;;
1320;SDS011;653;51.480;11.992;2022-12-07T03:35:00;21.30;;;11.67;;
1320;SDS011;653;51.480;11.992;2022-12-07T03:42:28;18.57;;;10.27;;
1320;SDS011;653;51.480;11.992;2022-12-07T03:44:54;18.57;;;10.50;;
1320;SDS011;653;51.480;11.992;2022-12-07T03:47:30;20.10;;;11.63;;
1320;SDS011;653;51.480;11.992;2022-12-07T03:50:06;20.90;;;13.33;;
1320;SDS011;653;51.480;11.992;2022-12-07T03:52:58;19.90;;;12.60;;
1320;SDS011;653;51.480;11.992;2022-12-07T03:55:31;20.03;;;10.40;;
1320;SDS011;653;51.480;11.992;2022-12-07T03:57:59;21.07;;;11.60;;
1320;SDS011;653;51.480;11.992;2022-12-07T04:00:26;18.90;;;11.80;;
1320;SDS011;653;51.480;11.992;2022-12-07T04:02:52;19.40;;;11.03;;
1320;SDS011;653;51.480;11.992;2022-12-07T04:05:17;16.23;;;10.90;;
1320;SDS011;653;51.480;11.992;2022-12-07T04:07:43;20.03;;;11.70;;
1320;SDS011;653;51.480;11.992;2022-12-07T04:10:08;15.23;;;10.70;;
1320;SDS011;653;51.480;11.992;2022-12-07T04:12:34;16.37;;;9.53;;
1320;SDS011;653;51.480;11.992;2022-12-07T04:14:59;16.27;;;10.10;;
1320;SDS011;653;51.480;11.992;2022-12-07T04:17:25;18.10;;;9.70;;
1320;SDS011;653;51.480;11.992;2022-12-07T04:19:50;19.03;;;10.30;;
1320;SDS011;653;51.480;11.992;2022-12-07T04:22:16;16.53;;;11.10;;
1320;SDS011;653;51.480;11.992;2022-12-07T04:24:41;14.73;;;9.60;;
1320;SDS011;653;51.480;11.992;2022-12-07T04:27:06;15.47;;;9.70;;
1320;SDS011;653;51.480;11.992;2022-12-07T04:29:32;18.10;;;10.73;;
1320;SDS011;653;51.480;11.992;2022-12-07T04:31:57;21.20;;;12.07;;
1320;SDS011;653;51.480;11.992;2022-12-07T04:34:22;14.13;;;10.80;;
1320;SDS011;653;51.480;11.992;2022-12-07T04:36:48;16.43;;;10.70;;
1320;SDS011;653;51.480;11.992;2022-12-07T04:39:23;21.13;;;11.20;;
1320;SDS011;653;51.480;11.992;2022-12-07T04:41:50;16.80;;;11.20;;
1320;SDS011;653;51.480;11.992;2022-12-07T04:44:15;19.00;;;9.90;;
1320;SDS011;653;51.480;11.992;2022-12-07T04:46:41;15.90;;;10.47;;
1320;SDS011;653;51.480;11.992;2022-12-07T04:49:07;17.87;;;11.77;;
1320;SDS011;653;51.480;11.992;2022-12-07T04:51:33;20.93;;;11.53;;
1320;SDS011;653;51.480;11.992;2022-12-07T04:53:58;12.20;;;9.40;;
1320;SDS011;653;51.480;11.992;2022-12-07T04:56:23;15.50;;;10.40;;
1320;SDS011;653;51.480;11.992;2022-12-07T04:58:50;13.67;;;9.80;;
1320;SDS011;653;51.480;11.992;2022-12-07T05:01:17;14.40;;;10.37;;
1320;SDS011;653;51.480;11.992;2022-12-07T05:03:42;17.70;;;10.17;;
1320;SDS011;653;51.480;11.992;2022-12-07T05:06:08;14.77;;;10.03;;
1320;SDS011;653;51.480;11.992;2022-12-07T05:08:34;15.20;;;9.70;;
1320;SDS011;653;51.480;11.992;2022-12-07T05:11:00;16.43;;;10.87;;
1320;SDS011;653;51.480;11.992;2022-12-07T05:13:26;14.30;;;9.50;;
1320;SDS011;653;51.480;11.992;2022-12-07T05:15:51;14.93;;;10.20;;
1320;SDS011;653;51.480;11.992;2022-12-07T05:18:17;16.73;;;10.50;;
1320;SDS011;653;51.480;11.992;2022-12-07T05:20:42;16.27;;;11.77;;
1320;SDS011;653;51.480;11.992;2022-12-07T05:23:08;14.80;;;10.50;;
1320;SDS011;653;51.480;11.992;2022-12-07T05:25:34;14.70;;;9.87;;
1320;SDS011;653;51.480;11.992;2022-12-07T05:27:59;14.20;;;9.60;;
1320;SDS011;653;51.480;11.992;2022-12-07T05:30:25;15.27;;;9.97;;
1320;SDS011;653;51.480;11.992;2022-12-07T05:32:51;13.00;;;8.63;;
1320;SDS011;653;51.480;11.992;2022-12-07T05:35:16;15.50;;;11.00;;
1320;SDS011;653;51.480;11.992;2022-12-07T05:37:42;14.70;;;10.77;;
1320;SDS011;653;51.480;11.992;2022-12-07T05:40:09;15.67;;;11.30;;
1320;SDS011;653;51.480;11.992;2022-12-07T05:42:34;14.27;;;9.63;;
1320;SDS011;653;51.480;11.992;2022-12-07T05:45:00;16.30;;;9.67;;
1320;SDS011;653;51.480;11.992;2022-12-07T05:47:25;13.23;;;8.93;;
1320;SDS011;653;51.480;11.992;2022-12-07T05:49:51;16.83;;;10.37;;
1320;SDS011;653;51.480;11.992;2022-12-07T05:52:16;13.47;;;10.30;;
1320;SDS011;653;51.480;11.992;2022-12-07T05:54:42;16.13;;;9.83;;
1320;SDS011;653;51.480;11.992;2022-12-07T05:57:07;18.30;;;11.10;;
1320;SDS011;653;51.480;11.992;2022-12-07T05:59:32;15.57;;;11.30;;
1320;SDS011;653;51.480;11.992;2022-12-07T06:02:02;17.50;;;11.37;;
1320;SDS011;653;51.480;11.992;2022-12-07T06:04:30;14.20;;;9.30;;
1320;SDS011;653;51.480;11.992;2022-12-07T06:06:57;15.30;;;9.27;;
1320;SDS011;653;51.480;11.992;2022-12-07T06:09:23;12.73;;;9.63;;
1320;SDS011;653;51.480;11.992;2022-12-07T06:11:50;17.63;;;11.97;;
1320;SDS011;653;51.480;11.992;2022-12-07T06:14:34;16.43;;;10.77;;
1320;SDS011;653;51.480;11.992;2022-12-07T06:17:00;19.97;;;12.13;;
1320;SDS011;653;51.480;11.992;2022-12-07T06:19:25;16.53;;;11.80;;
1320;SDS011;653;51.480;11.992;2022-12-07T06:21:51;22.00;;;12.23;;
1320;SDS011;653;51.480;11.992;2022-12-07T06:24:16;18.13;;;11.70;;
1320;SDS011;653;51.480;11.992;2022-12-07T06:26:42;20.63;;;11.63;;
1320;SDS011;653;51.480;11.992;2022-12-07T06:29:08;20.07;;;11.90;;
1320;SDS011;653;51.480;11.992;2022-12-07T06:31:34;18.20;;;11.57;;
1320;SDS011;653;51.480;11.992;2022-12-07T06:34:04;19.67;;;12.57;;
1320;SDS011;653;51.480;11.992;2022-12-07T06:36:32;16.60;;;10.70;;
1320;SDS011;653;51.480;11.992;2022-12-07T06:38:57;16.97;;;12.80;;
1320;SDS011;653;51.480;11.992;2022-12-07T06:41:23;17.77;;;12.50;;
1320;SDS011;653;51.480;11.992;2022-12-07T06:43:49;24.20;;;14.10;;
1320;SDS011;653;51.480;11.992;2022-12-07T06:46:15;22.83;;;13.37;;
1320;SDS011;653;51.480;11.992;2022-12-07T06:48:41;19.20;;;12.97;;
1320;SDS011;653;51.480;11.992;2022-12-07T06:51:07;21.63;;;13.43;;
1320;SDS011;653;51.480;11.992;2022-12-07T06:53:32;17.87;;;12.10;;
1320;SDS011;653;51.480;11.992;2022-12-07T06:55:57;22.30;;;13.60;;
1320;SDS011;653;51.480;11.992;2022-12-07T06:58:23;22.10;;;12.90;;
1320;SDS011;653;51.480;11.992;2022-12-07T07:00:48;25.17;;;15.17;;
1320;SDS011;653;51.480;11.992;2022-12-07T07:03:15;21.50;;;12.43;;
1320;SDS011;653;51.480;11.992;2022-12-07T07:05:41;21.47;;;13.00;;
1320;SDS011;653;51.480;11.992;2022-12-07T07:08:07;24.63;;;13.73;;
1320;SDS011;653;51.480;11.992;2022-12-07T07:10:32;23.60;;;13.90;;
1320;SDS011;653;51.480;11.992;2022-12-07T07:12:57;24.03;;;15.23;;
1320;SDS011;653;51.480;11.992;2022-12-07T07:15:23;21.60;;;13.27;;
1320;SDS011;653;51.480;11.992;2022-12-07T07:17:48;32.00;;;13.70;;
1320;SDS011;653;51.480;11.992;2022-12-07T07:20:13;23.50;;;14.10;;
1320;SDS011;653;51.480;11.992;2022-12-07T07:22:39;20.87;;;14.33;;
1320;SDS011;653;51.480;11.992;2022-12-07T07:25:04;22.43;;;14.57;;
1320;SDS011;653;51.480;11.992;2022-12-07T07:27:30;20.53;;;14.00;;
1320;SDS011;653;51.480;11.992;2022-12-07T07:29:56;21.20;;;14.00;;
1320;SDS011;653;51.480;11.992;2022-12-07T07:32:21;25.30;;;13.93;;
1320;SDS011;653;51.480;11.992;2022-12-07T07:34:47;24.87;;;14.07;;
1320;SDS011;653;51.480;11.992;2022-12-07T07:37:12;21.93;;;12.53;;
1320;SDS011;653;51.480;11.992;2022-12-07T07:39:38;19.93;;;12.70;;
1320;SDS011;653;51.480;11.992;2022-12-07T07:42:06;19.40;;;12.70;;
1320;SDS011;653;51.480;11.992;2022-12-07T07:44:33;20.70;;;13.97;;
1320;SDS011;653;51.480;11.992;2022-12-07T07:46:58;23.50;;;13.77;;
1320;SDS011;653;51.480;11.992;2022-12-07T07:49:24;26.40;;;15.83;;
1320;SDS011;653;51.480;11.992;2022-12-07T07:51:50;23.27;;;14.60;;
1320;SDS011;653;51.480;11.992;2022-12-07T07:54:15;23.63;;;14.77;;
1320;SDS011;653;51.480;11.992;2022-12-07T07:56:41;21.93;;;13.50;;
1320;SDS011;653;51.480;11.992;2022-12-07T07:59:06;22.50;;;13.43;;
1320;SDS011;653;51.480;11.992;2022-12-07T08:01:32;20.83;;;12.40;;
1320;SDS011;653;51.480;11.992;2022-12-07T08:03:57;20.07;;;12.20;;
1320;SDS011;653;51.480;11.992;2022-12-07T08:06:22;22.70;;;14.47;;
1320;SDS011;653;51.480;11.992;2022-12-07T08:08:48;21.67;;;13.63;;
1320;SDS011;653;51.480;11.992;2022-12-07T08:11:13;23.07;;;13.47;;
1320;SDS011;653;51.480;11.992;2022-12-07T08:13:38;24.50;;;12.30;;
1320;SDS011;653;51.480;11.992;2022-12-07T08:16:04;24.90;;;13.13;;
1320;SDS011;653;51.480;11.992;2022-12-07T08:18:34;25.60;;;13.47;;
1320;SDS011;653;51.480;11.992;2022-12-07T08:21:01;21.33;;;12.83;;
1320;SDS011;653;51.480;11.992;2022-12-07T08:23:26;20.13;;;11.57;;
1320;SDS011;653;51.480;11.992;2022-12-07T08:25:52;21.80;;;13.13;;
1320;SDS011;653;51.480;11.992;2022-12-07T08:28:17;18.73;;;11.80;;
1320;SDS011;653;51.480;11.992;2022-12-07T08:30:45;20.17;;;12.60;;
1320;SDS011;653;51.480;11.992;2022-12-07T08:33:11;19.10;;;11.17;;
1320;SDS011;653;51.480;11.992;2022-12-07T08:35:36;22.20;;;13.87;;
1320;SDS011;653;51.480;11.992;2022-12-07T08:38:03;19.00;;;12.10;;
1320;SDS011;653;51.480;11.992;2022-12-07T08:40:28;23.00;;;13.87;;
1320;SDS011;653;51.480;11.992;2022-12-07T08:42:54;21.20;;;14.30;;
1320;SDS011;653;51.480;11.992;2022-12-07T08:45:20;20.70;;;12.67;;
1320;SDS011;653;51.480;11.992;2022-12-07T08:47:57;22.47;;;14.70;;
1320;SDS011;653;51.480;11.992;2022-12-07T08:50:25;20.53;;;12.97;;
1320;SDS011;653;51.480;11.992;2022-12-07T08:52:52;24.40;;;14.50;;
1320;SDS011;653;51.480;11.992;2022-12-07T08:55:18;22.03;;;13.43;;
1320;SDS011;653;51.480;11.992;2022-12-07T08:57:44;20.20;;;12.40;;
1320;SDS011;653;51.480;11.992;2022-12-07T09:00:10;22.20;;;12.80;;
1320;SDS011;653;51.480;11.992;2022-12-07T09:02:35;26.10;;;12.43;;
1320;SDS011;653;51.480;11.992;2022-12-07T09:05:01;17.37;;;11.20;;
1320;SDS011;653;51.480;11.992;2022-12-07T09:07:27;22.00;;;11.60;;
1320;SDS011;653;51.480;11.992;2022-12-07T09:09:52;14.87;;;10.20;;
1320;SDS011;653;51.480;11.992;2022-12-07T09:12:17;16.73;;;10.30;;
1320;SDS011;653;51.480;11.992;2022-12-07T09:14:43;16.23;;;11.40;;
1320;SDS011;653;51.480;11.992;2022-12-07T09:17:10;16.07;;;9.63;;
1320;SDS011;653;51.480;11.992;2022-12-07T09:19:36;14.50;;;10.43;;
1320;SDS011;653;51.480;11.992;2022-12-07T09:22:02;23.30;;;10.80;;
1320;SDS011;653;51.480;11.992;2022-12-07T09:24:29;18.10;;;10.93;;
1320;SDS011;653;51.480;11.992;2022-12-07T09:26:59;16.60;;;10.07;;
1320;SDS011;653;51.480;11.992;2022-12-07T09:29:28;18.20;;;11.40;;
1320;SDS011;653;51.480;11.992;2022-12-07T09:31:53;21.47;;;11.30;;
1320;SDS011;653;51.480;11.992;2022-12-07T09:34:19;28.83;;;12.80;;
1320;SDS011;653;51.480;11.992;2022-12-07T09:36:45;20.03;;;13.07;;
1320;SDS011;653;51.480;11.992;2022-12-07T09:39:10;24.77;;;12.47;;
1320;SDS011;653;51.480;11.992;2022-12-07T09:41:39;19.50;;;13.23;;
1320;SDS011;653;51.480;11.992;2022-12-07T09:44:10;23.80;;;13.70;;
1320;SDS011;653;51.480;11.992;2022-12-07T09:46:41;26.83;;;15.60;;
1320;SDS011;653;51.480;11.992;2022-12-07T09:49:09;23.07;;;14.47;;
1320;SDS011;653;51.480;11.992;2022-12-07T09:51:37;26.67;;;14.50;;
1320;SDS011;653;51.480;11.992;2022-12-07T09:54:03;24.77;;;14.40;;
1320;SDS011;653;51.480;11.992;2022-12-07T09:56:28;19.10;;;13.13;;
1320;SDS011;653;51.480;11.992;2022-12-07T09:58:59;17.67;;;12.00;;
1320;SDS011;653;51.480;11.992;2022-12-07T10:01:30;21.70;;;11.80;;
1320;SDS011;653;51.480;11.992;2022-12-07T10:04:10;17.90;;;11.40;;
1320;SDS011;653;51.480;11.992;2022-12-07T10:06:39;19.10;;;9.73;;
1320;SDS011;653;51.480;11.992;2022-12-07T10:09:18;18.87;;;9.80;;
1320;SDS011;653;51.480;11.992;2022-12-07T10:14:30;18.80;;;10.60;;
1320;SDS011;653;51.480;11.992;2022-12-07T10:16:57;16.10;;;9.83;;
1320;SDS011;653;51.480;11.992;2022-12-07T10:19:24;15.00;;;10.43;;
1320;SDS011;653;51.480;11.992;2022-12-07T10:22:02;18.73;;;9.80;;
1320;SDS011;653;51.480;11.992;2022-12-07T10:24:30;21.30;;;9.40;;
1320;SDS011;653;51.480;11.992;2022-12-07T10:26:55;18.70;;;9.83;;
1320;SDS011;653;51.480;11.992;2022-12-07T10:29:28;15.60;;;9.10;;
1320;SDS011;653;51.480;11.992;2022-12-07T10:32:01;16.73;;;9.90;;
1320;SDS011;653;51.480;11.992;2022-12-07T10:34:47;12.33;;;7.97;;
1320;SDS011;653;51.480;11.992;2022-12-07T10:42:15;12.60;;;9.47;;
1320;SDS011;653;51.480;11.992;2022-12-07T10:47:51;15.27;;;8.43;;
1320;SDS011;653;51.480;11.992;2022-12-07T10:58:46;9.83;;;6.63;;
1320;SDS011;653;51.480;11.992;2022-12-07T11:01:25;7.47;;;5.53;;
1320;SDS011;653;51.480;11.992;2022-12-07T11:06:31;11.47;;;6.33;;
1320;SDS011;653;51.480;11.992;2022-12-07T11:11:58;10.30;;;7.30;;
1320;SDS011;653;51.480;11.992;2022-12-07T11:17:34;12.00;;;7.50;;
1320;SDS011;653;51.480;11.992;2022-12-07T11:30:53;14.73;;;9.53;;
1320;SDS011;653;51.480;11.992;2022-12-07T11:33:51;12.27;;;8.67;;
1320;SDS011;653;51.480;11.992;2022-12-07T11:41:47;10.33;;;6.67;;
1320;SDS011;653;51.480;11.992;2022-12-07T11:44:24;11.50;;;8.10;;
1320;SDS011;653;51.480;11.992;2022-12-07T11:47:08;12.80;;;7.20;;
1320;SDS011;653;51.480;11.992;2022-12-07T11:52:15;9.33;;;5.90;;
1320;SDS011;653;51.480;11.992;2022-12-07T11:54:46;10.10;;;6.33;;
1320;SDS011;653;51.480;11.992;2022-12-07T11:57:16;7.97;;;5.13;;
1320;SDS011;653;51.480;11.992;2022-12-07T11:59:52;6.03;;;4.60;;
1320;SDS011;653;51.480;11.992;2022-12-07T12:02:23;9.43;;;4.80;;
1320;SDS011;653;51.480;11.992;2022-12-07T12:05:11;5.97;;;4.47;;
1320;SDS011;653;51.480;11.992;2022-12-07T12:07:39;4.87;;;3.50;;
1320;SDS011;653;51.480;11.992;2022-12-07T12:10:06;8.30;;;4.17;;
1320;SDS011;653;51.480;11.992;2022-12-07T12:15:47;5.20;;;3.30;;
1320;SDS011;653;51.480;11.992;2022-12-07T12:21:22;5.17;;;2.37;;
1320;SDS011;653;51.480;11.992;2022-12-07T12:23:56;3.57;;;2.53;;
1320;SDS011;653;51.480;11.992;2022-12-07T12:26:27;5.97;;;2.30;;
1320;SDS011;653;51.480;11.992;2022-12-07T12:29:18;2.47;;;1.97;;
1320;SDS011;653;51.480;11.992;2022-12-07T12:31:48;7.90;;;2.50;;
1320;SDS011;653;51.480;11.992;2022-12-07T12:34:33;2.97;;;2.17;;
1320;SDS011;653;51.480;11.992;2022-12-07T12:40:40;4.53;;;2.50;;
1320;SDS011;653;51.480;11.992;2022-12-07T12:42:51;5.73;;;2.93;;
1320;SDS011;653;51.480;11.992;2022-12-07T12:53:19;10.53;;;3.67;;
1320;SDS011;653;51.480;11.992;2022-12-07T12:55:49;6.20;;;3.20;;
1320;SDS011;653;51.480;11.992;2022-12-07T12:58:32;5.30;;;2.67;;
1320;SDS011;653;51.480;11.992;2022-12-07T13:03:52;3.67;;;2.80;;
1320;SDS011;653;51.480;11.992;2022-12-07T13:08:51;9.23;;;3.57;;
1320;SDS011;653;51.480;11.992;2022-12-07T13:11:20;4.50;;;2.40;;
1320;SDS011;653;51.480;11.992;2022-12-07T13:13:52;6.30;;;2.90;;
1320;SDS011;653;51.480;11.992;2022-12-07T13:18:42;4.73;;;3.90;;
1320;SDS011;653;51.480;11.992;2022-12-07T13:23:37;6.30;;;3.77;;
1320;SDS011;653;51.480;11.992;2022-12-07T13:26:19;6.67;;;3.60;;
1320;SDS011;653;51.480;11.992;2022-12-07T13:28:48;5.43;;;3.63;;
1320;SDS011;653;51.480;11.992;2022-12-07T13:31:34;12.33;;;4.07;;
1320;SDS011;653;51.480;11.992;2022-12-07T13:34:05;6.57;;;4.50;;
1320;SDS011;653;51.480;11.992;2022-12-07T13:36:50;5.20;;;3.60;;
1320;SDS011;653;51.480;11.992;2022-12-07T13:39:20;5.93;;;3.87;;
1320;SDS011;653;51.480;11.992;2022-12-07T13:41:57;6.60;;;3.27;;
1320;SDS011;653;51.480;11.992;2022-12-07T13:44:24;7.67;;;3.00;;
1320;SDS011;653;51.480;11.992;2022-12-07T13:47:00;4.40;;;3.23;;
1320;SDS011;653;51.480;11.992;2022-12-07T13:49:39;5.87;;;3.23;;
1320;SDS011;653;51.480;11.992;2022-12-07T13:52:18;4.00;;;3.07;;
1320;SDS011;653;51.480;11.992;2022-12-07T13:57:31;3.90;;;2.53;;
1320;SDS011;653;51.480;11.992;2022-12-07T14:00:02;7.47;;;3.60;;
1320;SDS011;653;51.480;11.992;2022-12-07T14:02:30;4.13;;;2.90;;
1320;SDS011;653;51.480;11.992;2022-12-07T14:05:23;6.37;;;3.77;;
1320;SDS011;653;51.480;11.992;2022-12-07T14:07:54;4.10;;;2.87;;
1320;SDS011;653;51.480;11.992;2022-12-07T14:10:30;4.43;;;3.00;;
1320;SDS011;653;51.480;11.992;2022-12-07T14:13:24;4.77;;;3.20;;
1320;SDS011;653;51.480;11.992;2022-12-07T14:15:54;5.00;;;3.40;;
1320;SDS011;653;51.480;11.992;2022-12-07T14:21:14;7.60;;;3.80;;
1320;SDS011;653;51.480;11.992;2022-12-07T14:23:41;7.80;;;3.80;;
1320;SDS011;653;51.480;11.992;2022-12-07T14:26:08;4.57;;;3.40;;
1320;SDS011;653;51.480;11.992;2022-12-07T14:28:37;5.97;;;3.63;;
1320;SDS011;653;51.480;11.992;2022-12-07T14:31:03;6.97;;;4.07;;
1320;SDS011;653;51.480;11.992;2022-12-07T14:33:29;6.13;;;3.43;;
1320;SDS011;653;51.480;11.992;2022-12-07T14:35:57;6.40;;;3.17;;
1320;SDS011;653;51.480;11.992;2022-12-07T14:38:24;7.67;;;3.03;;
1320;SDS011;653;51.480;11.992;2022-12-07T14:40:53;4.67;;;3.20;;
1320;SDS011;653;51.480;11.992;2022-12-07T14:43:41;4.87;;;3.07;;
1320;SDS011;653;51.480;11.992;2022-12-07T14:46:10;5.00;;;3.40;;
1320;SDS011;653;51.480;11.992;2022-12-07T14:48:36;3.47;;;2.60;;
1320;SDS011;653;51.480;11.992;2022-12-07T14:51:02;4.40;;;3.10;;
1320;SDS011;653;51.480;11.992;2022-12-07T14:53:31;6.73;;;3.33;;
1320;SDS011;653;51.480;11.992;2022-12-07T14:56:04;9.10;;;5.00;;
1320;SDS011;653;51.480;11.992;2022-12-07T14:58:31;6.70;;;3.30;;
1320;SDS011;653;51.480;11.992;2022-12-07T15:00:57;10.37;;;3.90;;
1320;SDS011;653;51.480;11.992;2022-12-07T15:03:26;4.50;;;2.67;;
1320;SDS011;653;51.480;11.992;2022-12-07T15:05:58;4.60;;;2.80;;
1320;SDS011;653;51.480;11.992;2022-12-07T15:08:29;6.30;;;2.47;;
1320;SDS011;653;51.480;11.992;2022-12-07T15:10:55;5.40;;;3.20;;
1320;SDS011;653;51.480;11.992;2022-12-07T15:13:21;3.53;;;2.53;;
1320;SDS011;653;51.480;11.992;2022-12-07T15:16:07;7.53;;;3.10;;
1320;SDS011;653;51.480;11.992;2022-12-07T15:18:41;6.17;;;3.73;;
1320;SDS011;653;51.480;11.992;2022-12-07T15:21:12;5.73;;;3.23;;
1320;SDS011;653;51.480;11.992;2022-12-07T15:23:44;5.80;;;2.97;;
1320;SDS011;653;51.480;11.992;2022-12-07T15:26:13;5.07;;;3.37;;
1320;SDS011;653;51.480;11.992;2022-12-07T15:28:39;3.77;;;2.90;;
1320;SDS011;653;51.480;11.992;2022-12-07T15:31:12;6.10;;;2.70;;
1320;SDS011;653;51.480;11.992;2022-12-07T15:33:37;5.53;;;3.00;;
1320;SDS011;653;51.480;11.992;2022-12-07T15:36:03;5.30;;;2.87;;
1320;SDS011;653;51.480;11.992;2022-12-07T15:38:28;4.50;;;2.60;;
1320;SDS011;653;51.480;11.992;2022-12-07T15:40:55;3.93;;;2.63;;
1320;SDS011;653;51.480;11.992;2022-12-07T15:43:21;10.20;;;3.07;;
1320;SDS011;653;51.480;11.992;2022-12-07T15:46:05;3.80;;;2.07;;
1320;SDS011;653;51.480;11.992;2022-12-07T15:48:31;4.40;;;2.40;;
1320;SDS011;653;51.480;11.992;2022-12-07T15:51:03;3.10;;;2.10;;
1320;SDS011;653;51.480;11.992;2022-12-07T15:53:32;4.60;;;2.20;;
1320;SDS011;653;51.480;11.992;2022-12-07T15:55:58;5.27;;;2.20;;
1320;SDS011;653;51.480;11.992;2022-12-07T15:58:24;3.80;;;2.10;;
1320;SDS011;653;51.480;11.992;2022-12-07T16:00:49;8.57;;;1.90;;
1320;SDS011;653;51.480;11.992;2022-12-07T16:03:15;2.30;;;1.83;;
1320;SDS011;653;51.480;11.992;2022-12-07T16:05:40;5.30;;;2.27;;
1320;SDS011;653;51.480;11.992;2022-12-07T16:08:06;5.17;;;2.23;;
1320;SDS011;653;51.480;11.992;2022-12-07T16:10:31;4.87;;;2.30;;
1320;SDS011;653;51.480;11.992;2022-12-07T16:13:00;5.30;;;2.27;;
1320;SDS011;653;51.480;11.992;2022-12-07T16:15:26;3.50;;;2.20;;
1320;SDS011;653;51.480;11.992;2022-12-07T16:17:52;5.37;;;3.30;;
1320;SDS011;653;51.480;11.992;2022-12-07T16:20:17;4.50;;;2.50;;
1320;SDS011;653;51.480;11.992;2022-12-07T16:22:42;5.73;;;2.47;;
1320;SDS011;653;51.480;11.992;2022-12-07T16:25:08;7.67;;;3.17;;
1320;SDS011;653;51.480;11.992;2022-12-07T16:27:33;6.37;;;2.80;;
1320;SDS011;653;51.480;11.992;2022-12-07T16:29:59;7.17;;;3.80;;
1320;SDS011;653;51.480;11.992;2022-12-07T16:32:25;7.13;;;3.70;;
1320;SDS011;653;51.480;11.992;2022-12-07T16:34:50;3.83;;;3.00;;
1320;SDS011;653;51.480;11.992;2022-12-07T16:37:16;4.60;;;3.13;;
1320;SDS011;653;51.480;11.992;2022-12-07T16:39:41;7.10;;;3.70;;
1320;SDS011;653;51.480;11.992;2022-12-07T16:42:07;8.70;;;4.00;;
1320;SDS011;653;51.480;11.992;2022-12-07T16:44:35;6.53;;;3.43;;
1320;SDS011;653;51.480;11.992;2022-12-07T16:47:00;5.30;;;3.60;;
1320;SDS011;653;51.480;11.992;2022-12-07T16:49:26;7.60;;;4.13;;
1320;SDS011;653;51.480;11.992;2022-12-07T16:51:51;8.37;;;4.90;;
1320;SDS011;653;51.480;11.992;2022-12-07T16:54:17;5.50;;;3.50;;
1320;SDS011;653;51.480;11.992;2022-12-07T16:56:42;9.30;;;4.23;;
1320;SDS011;653;51.480;11.992;2022-12-07T16:59:08;9.13;;;4.37;;
1320;SDS011;653;51.480;11.992;2022-12-07T17:01:33;9.80;;;4.13;;